Cherokee, IA (51012)

11:26 AM CDT on July 28, 2016 (GMT -0500)
Cherokee Municipal | | Change Station

Elev 1227 ft 42.73 °N, 95.56 °W | Updated 11 minutes ago

Mostly Cloudy
Mostly Cloudy
73 °F
Feels Like 73 °F
N
8
Wind Variable Wind from NNW

Today
High -- | Low -- °F
--% Chance of Precip.
Yesterday
High -- | Low -- °F
Precip. -- in
Pressure 30.04 in
Visibility 10.0 miles
Clouds Mostly Cloudy 2000 ft
Mostly Cloudy 2600 ft
Dew Point 66 °F
Humidity 77%
Rainfall 0.00 in
Snow Depth Not available.
6:10 AM 8:46 PM
Waning Crescent, 31% visible
METAR KCKP 281615Z AUTO 33007KT 10SM BKN020 BKN026 23/19 A3004 RMK AO2 T02300187
Pressure 30.04 in
Visibility 10.0 miles
Clouds Mostly Cloudy 2000 ft
Mostly Cloudy 2600 ft
Dew Point 66 °F
Humidity 77%
Rainfall 0.00 in
Snow Depth Not available.
6:10 AM 8:46 PM
Waning Crescent, 31% visible
METAR KCKP 281615Z AUTO 33007KT 10SM BKN020 BKN026 23/19 A3004 RMK AO2 T02300187

10-Day Weather Forecast

Almanac

Astronomy

Jul. 28, 2016 Rise Set
Actual Time
Civil Twilight
Nautical Twilight
Astronomical Twilight
Moon
Length of Visible Light
Length of Day
Tomorrow will be .
, % of the Moon is Illuminated

Today's Extremes

State Highs State Lows

Community

WunderPhotos

Upload Photos

1,928,146 photos uploaded!

WunderBlog® & News

Nearby

Air Quality

  Air Quality AQ Index Pollutant
Not available.

Snow Depth

Station Depth Elevation

Earthquake Activity

City Distance Mag. Time & Date
Minimum magnitude displayed is 2.5.

Coastal Water Temperatures

Place Temperature

Stations

Nearby Weather Stations

Station Location Temp. Windchill Dew Point Humidity Wind Precip. Elev Updated Type
                   

Watches & Warnings

There are currently no watches in effect.